Portada
METAR-TAF:

METAR-TAF

Aeropuertos :

Aeropuerto de Murcia-San Javier

Murcia, España

latitud: 37-47N, longitud: 000-48W, altitud: 5 m

Observación

El informe se hizo hace 32 minutos, a las 11:30 UTC
Viento 7 kt del oeste-suroeste, variando entre sur-suroeste y oeste
Temperatura 19°C
Humedad 49%
Presión 1020 hPa
Visibilidad 10 km o más
sin nubes por debajo de 1500 m y sin presencia de cumulonimbus.

METAR: LELC 121130Z 25007KT 210V270 CAVOK 19/08 Q1020 NOSIG

Hora: 13:02 (12:02 UTC)

Pronóstico

El informe se hizo hace 1 hora y 2 minutos, a las 11:00 UTC
Pronóstico válido del 12 a las 12 UTC al 13 a las 12 UTC
Viento 9 kt del oeste-suroeste
Visibilidad 10 km o más
sin nubes por debajo de 1500 m y sin presencia de cumulonimbus.

TAF: LELC 121100Z 1212/1312 25009KT CAVOK TX19/1215Z TN11/1302Z

Observaciones y pronósticos meteorológicos de más de 4000 aeropuertos (mensajes METAR y TAF).

Los puntos amarillos y rojos representan las estaciones disponibles.

Ponga el ratón en el punto deseado para ver el nombre de la estación.

Haga clic para ver las observaciones y los pronósticos meteorológicos.

Para cambiar el mapa : haga clic en los botones verdes con una cruz de color negro para hacer un zoom, en el botón verde con un guión para alejar o en las flechas verdes para mapas adyacentes.


METAR-TAF: